createdAt,value
2023-03-24T00:01:03.381Z,49.37
2023-03-24T00:02:12.516Z,49.23
2023-03-24T00:03:14.855Z,49.13
2023-03-24T00:04:18.269Z,49.18
2023-03-24T00:05:25.531Z,49.17
2023-03-24T00:06:41.934Z,49.28
2023-03-24T00:07:46.853Z,49.09
2023-03-24T00:08:50.124Z,49.08
2023-03-24T00:09:54.171Z,49.12
2023-03-24T00:11:03.307Z,49.12
2023-03-24T00:12:11.248Z,49.13
2023-03-24T00:13:18.136Z,49.28
2023-03-24T00:14:20.470Z,49.28
2023-03-24T00:15:28.325Z,49.26
2023-03-24T00:16:33.099Z,49.34
2023-03-24T00:17:35.515Z,49.41
2023-03-24T00:18:51.461Z,49.48
2023-03-24T00:19:56.606Z,49.44
2023-03-24T00:20:59.888Z,49.60
2023-03-24T00:22:10.273Z,49.48
2023-03-24T00:23:15.327Z,49.49
2023-03-24T00:24:22.381Z,49.40
2023-03-24T00:25:30.781Z,49.14
2023-03-24T00:26:38.841Z,49.27
2023-03-24T00:27:43.599Z,49.30
2023-03-24T00:28:51.510Z,49.41
2023-03-24T00:29:58.090Z,49.46
2023-03-24T00:31:03.490Z,49.54
2023-03-24T00:32:11.327Z,49.79
2023-03-24T00:33:17.732Z,49.72
2023-03-24T00:34:21.154Z,49.91
2023-03-24T00:35:23.521Z,49.88
2023-03-24T00:36:27.344Z,50.14
2023-03-24T00:37:30.215Z,49.94
2023-03-24T00:38:34.055Z,50.10
2023-03-24T00:39:36.494Z,49.94
2023-03-24T00:40:38.983Z,49.90
2023-03-24T00:41:41.308Z,50.17
2023-03-24T00:42:44.827Z,50.15
2023-03-24T00:43:48.144Z,50.15
2023-03-24T00:44:51.021Z,49.93
2023-03-24T00:47:20.510Z,50.11
2023-03-24T00:48:23.816Z,50.43
2023-03-24T00:49:28.725Z,50.15
2023-03-24T00:50:31.580Z,50.02
2023-03-24T00:51:37.288Z,49.99
2023-03-24T00:52:39.679Z,50.04
2023-03-24T00:53:42.002Z,49.97
2023-03-24T00:54:45.052Z,49.96
2023-03-24T00:55:47.950Z,49.89
2023-03-24T00:56:50.420Z,49.61
2023-03-24T00:57:52.827Z,49.52
2023-03-24T00:58:55.796Z,49.61
2023-03-24T00:59:58.112Z,49.47
2023-03-24T01:01:00.571Z,49.47
2023-03-24T01:02:03.684Z,49.58
2023-03-24T01:03:06.112Z,49.49
2023-03-24T01:04:08.570Z,49.52
2023-03-24T01:05:13.614Z,49.47
2023-03-24T01:06:17.863Z,49.51
2023-03-24T01:07:21.396Z,49.47
2023-03-24T01:08:24.988Z,49.68
2023-03-24T01:09:27.809Z,49.85
2023-03-24T01:10:34.380Z,49.70
2023-03-24T01:11:40.195Z,49.76
2023-03-24T01:12:42.775Z,49.80
2023-03-24T01:13:45.045Z,49.70
2023-03-24T01:14:47.362Z,49.74
2023-03-24T01:15:51.343Z,49.64
2023-03-24T01:16:53.824Z,49.71
2023-03-24T01:17:56.739Z,49.57
2023-03-24T01:18:59.098Z,49.85
2023-03-24T01:20:01.449Z,50.14
2023-03-24T01:21:03.815Z,49.66
2023-03-24T01:22:06.734Z,49.80
2023-03-24T01:23:11.661Z,49.60
2023-03-24T01:24:14.031Z,49.61
2023-03-24T01:25:19.167Z,49.64
2023-03-24T01:26:22.002Z,49.88
2023-03-24T01:27:24.346Z,49.89
2023-03-24T01:28:26.694Z,49.77
2023-03-24T01:29:29.014Z,50.11
2023-03-24T01:30:32.355Z,50.04
2023-03-24T01:31:34.685Z,50.31
2023-03-24T01:32:37.100Z,49.96
2023-03-24T01:33:39.858Z,49.94
2023-03-24T01:34:42.520Z,49.69
2023-03-24T01:35:45.180Z,49.33
2023-03-24T01:36:48.215Z,49.51
2023-03-24T01:37:50.890Z,49.64
2023-03-24T01:38:53.710Z,49.83
2023-03-24T01:39:56.100Z,49.91
2023-03-24T01:40:59.062Z,49.88
2023-03-24T01:42:01.419Z,49.82
2023-03-24T01:43:04.835Z,49.80
2023-03-24T01:44:30.451Z,49.81
2023-03-24T01:47:09.228Z,49.61
2023-03-24T01:48:15.483Z,49.96
2023-03-24T01:49:18.373Z,49.77
2023-03-24T01:50:21.023Z,49.69
2023-03-24T01:52:36.827Z,49.77
2023-03-24T01:53:42.681Z,49.98
2023-03-24T01:54:53.568Z,50.01
2023-03-24T01:55:59.211Z,49.86
2023-03-24T01:58:27.367Z,49.60
2023-03-24T01:59:33.706Z,49.76
2023-03-24T02:00:44.229Z,49.76
2023-03-24T02:01:52.560Z,49.62
2023-03-24T02:03:03.226Z,49.66
2023-03-24T02:04:07.518Z,49.68
2023-03-24T02:05:11.988Z,49.64
2023-03-24T02:06:17.738Z,49.67
2023-03-24T02:07:27.092Z,49.86
2023-03-24T02:09:45.972Z,49.93
2023-03-24T02:10:49.171Z,50.00
2023-03-24T02:11:53.071Z,49.97
2023-03-24T02:12:55.439Z,50.27
2023-03-24T02:13:58.475Z,50.28
2023-03-24T02:15:02.620Z,50.30
2023-03-24T02:16:28.392Z,50.43
2023-03-24T02:19:16.555Z,50.73
2023-03-24T02:20:56.531Z,50.71
2023-03-24T02:22:05.240Z,50.87
2023-03-24T02:23:37.223Z,50.33
2023-03-24T02:24:54.668Z,50.36
2023-03-24T02:26:06.546Z,50.44
2023-03-24T02:27:41.313Z,50.49
2023-03-24T02:28:50.215Z,50.87
2023-03-24T02:30:05.134Z,50.53
2023-03-24T02:31:26.761Z,50.65
2023-03-24T02:32:41.778Z,50.80
2023-03-24T02:34:03.326Z,50.69
2023-03-24T02:35:29.336Z,50.54
2023-03-24T02:38:27.475Z,50.52
2023-03-24T02:39:48.956Z,50.74
2023-03-24T02:41:21.816Z,50.63
2023-03-24T02:42:40.166Z,50.81
2023-03-24T02:44:04.060Z,50.62
2023-03-24T02:45:31.474Z,50.58
2023-03-24T02:48:17.733Z,50.82
2023-03-24T02:49:30.076Z,50.91
2023-03-24T02:50:54.737Z,50.75
2023-03-24T02:53:41.385Z,50.80
2023-03-24T02:55:00.334Z,50.92
2023-03-24T02:56:15.903Z,50.87
2023-03-24T02:57:25.378Z,50.83
2023-03-24T03:00:17.428Z,51.22
2023-03-24T03:01:40.307Z,51.51
2023-03-24T03:04:14.958Z,51.32
2023-03-24T03:05:21.044Z,51.42
2023-03-24T03:06:27.285Z,51.42
2023-03-24T03:07:32.445Z,51.40
2023-03-24T03:08:35.752Z,51.21
2023-03-24T03:10:58.301Z,51.49
2023-03-24T03:12:02.396Z,51.42
2023-03-24T03:14:35.178Z,51.28
2023-03-24T03:15:43.004Z,51.61
2023-03-24T03:16:52.074Z,51.27
2023-03-24T03:18:16.151Z,51.15
2023-03-24T03:19:22.106Z,51.38
2023-03-24T03:20:26.874Z,51.19
2023-03-24T03:21:32.969Z,51.11
2023-03-24T03:24:00.805Z,52.03
2023-03-24T03:25:04.606Z,55.57
2023-03-24T03:26:10.181Z,55.87
2023-03-24T03:27:15.701Z,55.91
2023-03-24T03:28:22.049Z,56.37
2023-03-24T03:29:29.499Z,56.78
2023-03-24T03:35:57.778Z,57.46
2023-03-24T03:38:37.702Z,56.79
2023-03-24T03:39:47.372Z,56.36
2023-03-24T03:40:56.068Z,56.19
2023-03-24T03:42:00.730Z,56.87
2023-03-24T03:43:05.020Z,56.37
2023-03-24T03:44:08.233Z,56.32
2023-03-24T03:45:10.835Z,56.21
2023-03-24T03:46:15.831Z,55.98
2023-03-24T03:47:18.732Z,55.95
2023-03-24T03:48:23.235Z,55.75
2023-03-24T03:49:25.765Z,55.54
2023-03-24T03:50:29.486Z,55.39
2023-03-24T03:51:33.747Z,55.36
2023-03-24T03:52:39.839Z,55.05
2023-03-24T03:53:48.450Z,55.47
2023-03-24T03:54:51.656Z,55.70
2023-03-24T03:55:54.114Z,55.91
2023-03-24T03:56:56.936Z,61.39
2023-03-24T03:58:04.471Z,58.46
2023-03-24T03:59:11.980Z,55.78
2023-03-24T04:00:16.685Z,54.04
2023-03-24T04:01:25.025Z,52.67
2023-03-24T04:02:35.705Z,51.59
2023-03-24T04:03:42.386Z,51.24
2023-03-24T04:05:05.841Z,50.99
2023-03-24T04:06:38.480Z,50.94
2023-03-24T04:07:53.389Z,50.43
2023-03-24T04:09:16.684Z,50.47
2023-03-24T04:12:18.324Z,50.26
2023-03-24T04:13:26.529Z,50.60
2023-03-24T04:15:16.690Z,50.34
2023-03-24T04:17:00.038Z,50.28
2023-03-24T04:18:24.492Z,50.39
2023-03-24T04:21:19.838Z,50.69
2023-03-24T04:22:49.536Z,50.83
2023-03-24T04:24:18.469Z,50.67
2023-03-24T04:25:45.603Z,50.39
2023-03-24T04:26:57.176Z,50.94
2023-03-24T04:28:21.543Z,50.83
2023-03-24T04:29:30.628Z,50.73
2023-03-24T04:30:42.510Z,50.59
2023-03-24T04:32:04.665Z,50.72
2023-03-24T04:33:18.666Z,50.80
2023-03-24T04:35:45.476Z,50.89
2023-03-24T04:37:00.108Z,51.00
2023-03-24T04:38:08.970Z,51.00
2023-03-24T04:39:14.130Z,51.28
2023-03-24T04:40:20.732Z,51.04
2023-03-24T04:41:25.570Z,50.98
2023-03-24T04:43:47.873Z,51.13
2023-03-24T04:44:50.306Z,51.39
2023-03-24T04:46:03.094Z,51.32
2023-03-24T04:47:09.242Z,51.39
2023-03-24T04:48:12.426Z,51.20
2023-03-24T04:49:22.706Z,51.31
2023-03-24T04:50:43.232Z,51.34
2023-03-24T04:51:47.357Z,51.37
2023-03-24T04:52:51.380Z,51.64
2023-03-24T04:53:53.850Z,51.69
2023-03-24T04:54:57.299Z,51.58
2023-03-24T04:56:24.700Z,51.75
2023-03-24T04:57:31.914Z,52.07
2023-03-24T04:58:38.847Z,51.83
2023-03-24T04:59:41.016Z,51.96
2023-03-24T05:00:44.016Z,52.04
2023-03-24T05:01:48.162Z,51.87
2023-03-24T05:02:55.189Z,52.24
2023-03-24T05:03:59.582Z,52.04
2023-03-24T05:05:01.886Z,51.95
2023-03-24T05:06:13.476Z,51.96
2023-03-24T05:07:15.784Z,51.95
2023-03-24T05:08:19.935Z,51.97
2023-03-24T05:09:25.323Z,52.30
2023-03-24T05:10:28.251Z,52.57
2023-03-24T05:11:31.515Z,52.30
2023-03-24T05:12:36.158Z,52.21
2023-03-24T05:13:55.828Z,52.44
2023-03-24T05:14:58.382Z,52.54
2023-03-24T05:16:00.762Z,52.49
2023-03-24T05:17:10.802Z,52.61
2023-03-24T05:18:14.591Z,52.31
2023-03-24T05:19:18.614Z,52.43
2023-03-24T05:20:21.002Z,52.45
2023-03-24T05:21:25.129Z,52.48
2023-03-24T05:22:28.169Z,52.42
2023-03-24T05:23:30.434Z,52.46
2023-03-24T05:24:33.475Z,52.33
2023-03-24T05:25:36.638Z,52.40
2023-03-24T05:26:39.369Z,52.54
2023-03-24T05:27:43.808Z,52.41
2023-03-24T05:28:47.957Z,52.61
2023-03-24T05:29:50.036Z,52.48
2023-03-24T05:30:54.325Z,52.41
2023-03-24T05:32:16.722Z,52.56
2023-03-24T05:33:19.681Z,52.67
2023-03-24T05:34:22.312Z,52.85
2023-03-24T05:35:26.810Z,53.02
2023-03-24T05:36:29.188Z,52.80
2023-03-24T05:37:33.664Z,52.81
2023-03-24T05:38:36.213Z,52.91
2023-03-24T05:39:38.641Z,52.88
2023-03-24T05:40:45.655Z,52.85
2023-03-24T05:41:49.649Z,52.96
2023-03-24T05:42:51.812Z,52.95
2023-03-24T05:43:54.861Z,52.88
2023-03-24T05:44:57.338Z,52.84
2023-03-24T05:46:01.524Z,52.99
2023-03-24T05:47:06.712Z,52.75
2023-03-24T05:48:09.652Z,53.13
2023-03-24T05:50:47.904Z,53.05
2023-03-24T05:51:50.625Z,53.54
2023-03-24T05:52:52.662Z,53.43
2023-03-24T05:54:05.902Z,53.10
2023-03-24T05:55:18.877Z,53.04
2023-03-24T05:56:22.043Z,53.14
2023-03-24T05:57:28.854Z,53.08
2023-03-24T05:58:52.347Z,53.16
2023-03-24T05:59:56.980Z,52.99
2023-03-24T06:01:11.473Z,52.82
2023-03-24T06:02:14.353Z,52.77
2023-03-24T06:03:18.695Z,52.89
2023-03-24T06:04:27.324Z,52.88
2023-03-24T06:05:31.559Z,52.78
2023-03-24T06:06:34.467Z,52.72
2023-03-24T06:07:41.004Z,52.77
2023-03-24T06:08:44.880Z,52.72
2023-03-24T06:09:47.611Z,52.68
2023-03-24T06:10:51.728Z,52.71
2023-03-24T06:11:55.364Z,52.74
2023-03-24T06:12:59.510Z,52.62
2023-03-24T06:14:02.534Z,52.52
2023-03-24T06:15:08.155Z,52.53
2023-03-24T06:16:10.877Z,52.71
2023-03-24T06:17:15.916Z,52.70
2023-03-24T06:18:21.572Z,52.79
2023-03-24T06:19:26.047Z,52.76
2023-03-24T06:20:30.252Z,52.79
2023-03-24T06:21:43.432Z,52.58
2023-03-24T06:22:47.257Z,52.38
2023-03-24T06:23:51.353Z,52.06
2023-03-24T06:24:55.522Z,52.47
2023-03-24T06:25:58.140Z,52.07
2023-03-24T06:27:01.137Z,51.84
2023-03-24T06:28:05.064Z,51.74
2023-03-24T06:29:08.365Z,51.78
2023-03-24T06:30:16.743Z,51.76
2023-03-24T06:31:20.635Z,51.76
2023-03-24T06:32:25.231Z,51.76
2023-03-24T06:33:28.149Z,51.73
2023-03-24T06:34:30.594Z,51.62
2023-03-24T06:35:35.287Z,51.94
2023-03-24T06:36:39.532Z,51.95
2023-03-24T06:37:42.859Z,51.94
2023-03-24T06:38:46.791Z,52.12
2023-03-24T06:39:50.858Z,51.84
2023-03-24T06:40:54.710Z,51.85
2023-03-24T06:41:56.914Z,51.64
2023-03-24T06:42:59.227Z,51.60
2023-03-24T06:44:01.971Z,51.74
2023-03-24T06:45:06.208Z,51.72
2023-03-24T06:46:09.272Z,51.70
2023-03-24T06:47:11.720Z,51.59
2023-03-24T06:48:14.941Z,51.75
2023-03-24T06:49:17.229Z,51.77
2023-03-24T06:50:19.817Z,51.89
2023-03-24T06:51:22.172Z,51.72
2023-03-24T06:52:24.463Z,51.80
2023-03-24T06:53:27.199Z,51.67
2023-03-24T06:54:30.219Z,51.58
2023-03-24T06:55:33.700Z,51.36
2023-03-24T06:56:36.830Z,51.36
2023-03-24T06:57:39.192Z,51.50
2023-03-24T06:58:55.371Z,51.32
2023-03-24T06:59:59.353Z,51.37
2023-03-24T07:01:03.494Z,51.25
2023-03-24T07:02:13.734Z,51.17
2023-03-24T07:03:18.276Z,51.38
2023-03-24T07:04:23.099Z,51.42
2023-03-24T07:05:27.800Z,51.22
2023-03-24T07:06:30.886Z,51.23
2023-03-24T07:08:16.883Z,51.54
2023-03-24T07:08:50.643Z,51.40
2023-03-24T07:09:53.672Z,51.36
2023-03-24T07:10:56.086Z,51.49
2023-03-24T07:11:58.871Z,51.69
2023-03-24T07:13:01.585Z,51.58
2023-03-24T07:14:04.070Z,51.59
2023-03-24T07:15:09.526Z,51.55
2023-03-24T07:16:12.712Z,51.62
2023-03-24T07:17:15.857Z,51.59
2023-03-24T07:18:22.516Z,51.45
2023-03-24T07:19:26.952Z,51.30
2023-03-24T07:20:31.625Z,51.43
2023-03-24T07:21:42.127Z,51.51
2023-03-24T07:22:44.219Z,51.47
2023-03-24T07:24:01.703Z,51.47
2023-03-24T07:25:06.433Z,51.42
2023-03-24T07:26:19.757Z,51.25
2023-03-24T07:27:21.661Z,51.35
2023-03-24T07:28:24.472Z,51.41
2023-03-24T07:29:26.691Z,51.46
2023-03-24T07:30:51.214Z,51.31
2023-03-24T07:31:38.555Z,51.25
2023-03-24T07:32:42.708Z,51.18
2023-03-24T07:33:45.206Z,51.26
2023-03-24T07:34:47.394Z,51.46
2023-03-24T07:35:54.791Z,51.46
2023-03-24T07:36:59.112Z,51.37
2023-03-24T07:38:02.148Z,51.22
2023-03-24T07:39:04.303Z,51.11
2023-03-24T07:40:11.713Z,51.30
2023-03-24T07:41:14.251Z,51.21
2023-03-24T07:42:18.524Z,51.32
2023-03-24T07:43:22.945Z,51.38
2023-03-24T07:44:30.003Z,51.36
2023-03-24T07:45:34.277Z,51.37
2023-03-24T07:46:37.392Z,51.48
2023-03-24T07:48:54.366Z,51.63
2023-03-24T07:49:57.693Z,51.63
2023-03-24T07:51:00.325Z,51.58
2023-03-24T07:52:07.734Z,51.50
2023-03-24T07:53:16.321Z,51.37
2023-03-24T07:54:20.546Z,51.53
2023-03-24T07:55:26.950Z,51.38
2023-03-24T07:56:34.840Z,51.44
2023-03-24T07:57:38.239Z,51.43
2023-03-24T07:58:42.862Z,51.66
2023-03-24T07:59:57.895Z,51.37
2023-03-24T08:01:04.462Z,51.44
2023-03-24T08:02:19.717Z,51.41
2023-03-24T08:03:26.652Z,51.44
2023-03-24T08:06:08.639Z,51.57
2023-03-24T08:07:27.437Z,51.43
2023-03-24T08:08:34.084Z,51.41
2023-03-24T08:09:38.165Z,51.46
2023-03-24T08:10:41.316Z,51.33
2023-03-24T08:11:47.299Z,51.52
2023-03-24T08:12:50.630Z,51.58
2023-03-24T08:13:53.185Z,51.51
2023-03-24T08:14:55.429Z,51.53
2023-03-24T08:15:57.798Z,51.41
2023-03-24T08:17:00.142Z,51.44
2023-03-24T08:18:02.366Z,51.47
2023-03-24T08:19:04.734Z,51.37
2023-03-24T08:20:11.206Z,51.50
2023-03-24T08:21:18.717Z,51.32
2023-03-24T08:22:21.681Z,51.21
2023-03-24T08:23:25.591Z,51.41
2023-03-24T08:24:27.832Z,51.55
2023-03-24T08:25:30.530Z,51.61
2023-03-24T08:26:32.887Z,51.44
2023-03-24T08:27:36.602Z,51.51
2023-03-24T08:28:42.944Z,51.66
2023-03-24T08:29:47.160Z,51.72
2023-03-24T08:30:50.864Z,51.60
2023-03-24T08:31:53.369Z,51.69
2023-03-24T08:32:58.527Z,51.60
2023-03-24T08:34:03.910Z,51.57
2023-03-24T08:35:06.323Z,51.72
2023-03-24T08:36:09.405Z,51.50
2023-03-24T08:37:11.945Z,51.70
2023-03-24T08:38:16.229Z,51.55
2023-03-24T08:39:18.917Z,51.53
2023-03-24T08:40:23.002Z,51.50
2023-03-24T08:41:25.350Z,51.61
2023-03-24T08:42:29.035Z,51.44
2023-03-24T08:43:31.964Z,51.44
2023-03-24T08:44:34.312Z,51.78
2023-03-24T08:45:40.473Z,51.81
2023-03-24T08:46:45.555Z,51.57
2023-03-24T08:47:49.451Z,51.73
2023-03-24T08:48:51.743Z,51.50
2023-03-24T08:49:57.688Z,51.41
2023-03-24T08:51:00.026Z,51.36
2023-03-24T08:52:02.188Z,51.37
2023-03-24T08:53:04.745Z,51.48
2023-03-24T08:54:08.964Z,51.58
2023-03-24T08:55:11.178Z,51.61
2023-03-24T08:56:14.337Z,51.76
2023-03-24T08:57:16.665Z,52.13
2023-03-24T08:58:20.660Z,52.11
2023-03-24T08:59:23.031Z,51.94
2023-03-24T09:00:25.900Z,51.99
2023-03-24T09:01:28.144Z,51.70
2023-03-24T09:02:31.206Z,51.53
2023-03-24T09:03:33.446Z,51.35
2023-03-24T09:04:35.528Z,51.40
2023-03-24T09:05:44.419Z,51.36
2023-03-24T09:06:42.749Z,51.03
2023-03-24T09:07:46.426Z,50.88
2023-03-24T09:08:49.012Z,50.96
2023-03-24T09:09:51.608Z,51.04
2023-03-24T09:10:54.890Z,50.90
2023-03-24T09:11:59.410Z,50.93
2023-03-24T09:13:10.607Z,51.31
2023-03-24T09:14:12.899Z,50.93
2023-03-24T09:15:15.337Z,51.03
2023-03-24T09:16:18.146Z,50.95
2023-03-24T09:17:20.361Z,50.74
2023-03-24T09:18:36.158Z,50.80
2023-03-24T09:19:39.758Z,50.75
2023-03-24T09:20:46.563Z,50.44
2023-03-24T09:21:49.410Z,50.38
2023-03-24T09:22:51.703Z,50.44
2023-03-24T09:23:54.218Z,50.43
2023-03-24T09:24:56.940Z,50.23
2023-03-24T09:25:59.602Z,50.40
2023-03-24T09:27:03.841Z,50.44
2023-03-24T09:28:05.927Z,50.63
2023-03-24T09:29:09.774Z,50.57
2023-03-24T09:31:25.646Z,50.33
2023-03-24T09:32:29.802Z,50.35
2023-03-24T09:33:36.662Z,50.51
2023-03-24T09:34:41.114Z,50.44
2023-03-24T09:35:43.348Z,50.46
2023-03-24T09:36:49.725Z,50.33
2023-03-24T09:37:54.149Z,50.41
2023-03-24T09:38:56.892Z,50.13
2023-03-24T09:40:05.340Z,50.07
2023-03-24T09:42:37.885Z,50.75
2023-03-24T09:44:02.076Z,50.32
2023-03-24T09:45:14.392Z,50.24
2023-03-24T09:46:35.684Z,50.38
2023-03-24T09:48:00.498Z,50.10
2023-03-24T09:49:06.393Z,50.02
2023-03-24T09:50:23.179Z,50.46
2023-03-24T09:51:35.238Z,50.27
2023-03-24T09:52:42.602Z,49.95
2023-03-24T09:54:23.704Z,49.75
2023-03-24T09:55:47.260Z,49.61
2023-03-24T09:56:56.565Z,49.88
2023-03-24T09:58:03.512Z,50.27
2023-03-24T09:59:15.684Z,49.92
2023-03-24T10:00:39.654Z,50.13
2023-03-24T10:01:44.150Z,49.98
2023-03-24T10:02:56.129Z,49.40
2023-03-24T10:04:04.993Z,49.65
2023-03-24T10:06:35.061Z,49.91
2023-03-24T10:07:39.874Z,49.69
2023-03-24T10:08:44.859Z,49.73
2023-03-24T10:09:50.153Z,50.12
2023-03-24T10:12:47.261Z,49.71
2023-03-24T10:14:04.181Z,49.41
2023-03-24T10:15:10.700Z,49.39
2023-03-24T10:16:36.981Z,49.79
2023-03-24T10:18:01.354Z,49.63
2023-03-24T10:19:31.610Z,49.46
2023-03-24T10:20:52.109Z,50.01
2023-03-24T10:22:17.422Z,48.92
2023-03-24T10:23:41.099Z,48.65
2023-03-24T10:25:05.390Z,48.36
2023-03-24T10:26:48.101Z,48.31
2023-03-24T10:28:30.980Z,47.92
2023-03-24T10:29:37.554Z,47.63
2023-03-24T10:30:46.783Z,47.68
2023-03-24T10:31:53.958Z,48.05
2023-03-24T10:32:56.786Z,48.04
2023-03-24T10:34:01.513Z,47.82
2023-03-24T10:35:12.382Z,47.49
2023-03-24T10:37:28.914Z,48.07
2023-03-24T10:38:31.735Z,48.33
2023-03-24T10:39:44.869Z,48.76
2023-03-24T10:41:48.936Z,48.29
2023-03-24T10:43:07.343Z,48.13
2023-03-24T10:43:57.044Z,47.17
2023-03-24T10:45:00.068Z,47.17
2023-03-24T10:46:03.826Z,47.72
2023-03-24T10:47:07.319Z,47.12
2023-03-24T10:48:12.108Z,47.13
2023-03-24T10:49:23.542Z,47.16
2023-03-24T10:50:31.403Z,47.41
2023-03-24T10:51:34.746Z,47.50
2023-03-24T10:52:42.704Z,47.41
2023-03-24T10:53:46.943Z,47.06
2023-03-24T10:54:59.184Z,46.96
2023-03-24T10:56:01.501Z,46.74
2023-03-24T10:57:09.185Z,47.64
2023-03-24T10:58:27.819Z,47.41
2023-03-24T10:59:39.356Z,46.80
2023-03-24T11:00:43.636Z,47.29
2023-03-24T11:01:46.058Z,47.12
2023-03-24T11:04:19.820Z,47.40
2023-03-24T11:05:28.553Z,47.58
2023-03-24T11:06:31.801Z,47.02
2023-03-24T11:09:19.269Z,47.62
2023-03-24T11:10:26.190Z,47.77
2023-03-24T11:11:31.258Z,46.90
2023-03-24T11:13:48.917Z,46.83
2023-03-24T11:14:51.596Z,46.53
2023-03-24T11:16:15.009Z,47.03
2023-03-24T11:17:21.254Z,47.81
2023-03-24T11:18:24.021Z,48.05
2023-03-24T11:19:26.649Z,47.69
2023-03-24T11:20:41.395Z,47.71
2023-03-24T11:21:43.604Z,47.66
2023-03-24T11:24:24.263Z,47.34
2023-03-24T11:25:37.295Z,47.01
2023-03-24T11:26:41.061Z,47.87
2023-03-24T11:27:48.030Z,47.38
2023-03-24T11:28:53.912Z,47.22
2023-03-24T11:33:34.867Z,47.51
2023-03-24T11:36:05.120Z,47.17
2023-03-24T11:37:13.836Z,47.30
2023-03-24T11:38:18.251Z,47.75
2023-03-24T11:39:28.167Z,48.08
2023-03-24T11:40:30.836Z,47.73
2023-03-24T11:41:34.889Z,48.26
2023-03-24T11:42:46.143Z,47.92
2023-03-24T11:43:49.071Z,47.67
2023-03-24T11:44:52.491Z,48.36
2023-03-24T11:46:07.968Z,47.55
2023-03-24T11:47:26.912Z,48.11
2023-03-24T11:48:50.512Z,47.56
2023-03-24T11:50:09.217Z,47.54
2023-03-24T11:51:15.897Z,47.79
2023-03-24T11:53:45.513Z,48.17
2023-03-24T11:54:47.887Z,47.73
2023-03-24T11:55:53.547Z,47.86
2023-03-24T11:56:59.020Z,47.50
2023-03-24T11:58:14.893Z,48.03
2023-03-24T12:04:06.128Z,47.29
2023-03-24T12:07:05.044Z,46.69
2023-03-24T12:10:00.887Z,47.00
2023-03-24T12:11:09.397Z,47.00
2023-03-24T12:12:40.280Z,46.80
2023-03-24T12:13:50.927Z,46.63
2023-03-24T12:15:26.606Z,46.32
2023-03-24T12:16:40.281Z,46.28
2023-03-24T12:18:03.406Z,46.12
2023-03-24T12:19:44.842Z,46.94
2023-03-24T12:20:53.573Z,47.09
2023-03-24T12:22:07.315Z,46.76
2023-03-24T12:24:54.240Z,46.80
2023-03-24T12:26:07.075Z,47.23
2023-03-24T12:27:14.920Z,45.64
2023-03-24T12:28:26.933Z,45.10
2023-03-24T12:31:31.218Z,45.40
2023-03-24T12:34:25.689Z,45.56
2023-03-24T12:37:08.028Z,45.12
2023-03-24T12:40:13.139Z,46.38
2023-03-24T12:42:46.556Z,46.27
2023-03-24T12:44:10.309Z,44.88
2023-03-24T12:45:28.399Z,44.54
2023-03-24T12:46:47.806Z,44.79
2023-03-24T12:48:06.878Z,44.97
2023-03-24T12:49:42.813Z,44.28
2023-03-24T12:51:10.131Z,44.44
2023-03-24T12:52:18.912Z,44.75
2023-03-24T12:53:39.858Z,44.99
2023-03-24T12:55:04.287Z,45.67
2023-03-24T12:56:24.602Z,46.12
2023-03-24T12:57:28.403Z,45.79
2023-03-24T12:58:36.954Z,45.33
2023-03-24T13:01:00.910Z,45.53
2023-03-24T13:02:26.746Z,45.87
2023-03-24T13:03:47.911Z,46.32
2023-03-24T13:06:07.328Z,45.54
2023-03-24T13:07:09.770Z,45.39
2023-03-24T13:09:46.725Z,44.98
2023-03-24T13:10:50.453Z,45.03
2023-03-24T13:12:02.020Z,45.18
2023-03-24T13:13:16.990Z,45.54
2023-03-24T13:14:29.346Z,46.58
2023-03-24T13:15:34.256Z,47.54
2023-03-24T13:16:37.522Z,50.67
2023-03-24T13:18:00.688Z,51.58
2023-03-24T13:19:04.261Z,50.38
2023-03-24T13:20:10.724Z,52.51
2023-03-24T13:21:16.482Z,52.03
2023-03-24T13:22:20.591Z,52.57
2023-03-24T13:24:42.534Z,51.94
2023-03-24T13:25:51.328Z,51.02
2023-03-24T13:27:14.111Z,52.05
2023-03-24T13:28:22.638Z,51.68
2023-03-24T13:29:51.598Z,51.96
2023-03-24T13:30:55.702Z,49.97
2023-03-24T13:32:08.550Z,50.18
2023-03-24T13:33:16.849Z,49.94
2023-03-24T13:34:23.084Z,52.57
2023-03-24T13:35:50.812Z,51.93
2023-03-24T13:36:57.670Z,52.71
2023-03-24T13:38:04.084Z,51.05
2023-03-24T13:39:09.891Z,51.94
2023-03-24T13:40:24.472Z,52.67
2023-03-24T13:41:28.758Z,51.33
2023-03-24T13:42:36.680Z,50.92
2023-03-24T13:43:44.171Z,51.19
2023-03-24T13:44:48.658Z,51.23
2023-03-24T13:46:01.073Z,52.02
2023-03-24T13:47:14.819Z,50.75
2023-03-24T13:48:20.713Z,49.05
2023-03-24T13:49:24.150Z,49.55
2023-03-24T13:50:30.153Z,49.18
2023-03-24T13:51:35.141Z,49.99
2023-03-24T13:52:39.659Z,50.18
2023-03-24T13:54:06.764Z,49.75
2023-03-24T13:58:09.169Z,50.80
2023-03-24T14:01:12.406Z,48.56
2023-03-24T14:02:26.157Z,50.03
2023-03-24T14:03:35.994Z,50.84
2023-03-24T14:04:47.293Z,50.46
2023-03-24T14:06:10.673Z,50.17
2023-03-24T14:07:50.199Z,47.62
2023-03-24T14:08:56.244Z,47.59
2023-03-24T14:10:17.631Z,49.15
2023-03-24T14:11:43.912Z,49.57
2023-03-24T14:13:01.692Z,49.01
2023-03-24T14:14:16.535Z,47.62
2023-03-24T14:15:38.940Z,46.70
2023-03-24T14:16:52.575Z,45.78
2023-03-24T14:17:56.862Z,45.22
2023-03-24T14:19:20.174Z,44.17
2023-03-24T14:21:45.660Z,44.14
2023-03-24T14:22:48.926Z,43.71
2023-03-24T14:23:53.147Z,44.01
2023-03-24T14:25:04.451Z,43.70
2023-03-24T14:26:23.933Z,43.53
2023-03-24T14:28:55.705Z,43.22
2023-03-24T14:30:14.959Z,43.68
2023-03-24T14:31:33.196Z,43.90
2023-03-24T14:34:15.299Z,43.94
2023-03-24T14:35:42.072Z,43.50
2023-03-24T14:36:45.650Z,43.92
2023-03-24T14:38:01.054Z,44.06
2023-03-24T14:39:42.631Z,43.95
2023-03-24T14:40:54.490Z,43.85
2023-03-24T14:42:00.305Z,43.93
2023-03-24T14:43:28.756Z,43.91
2023-03-24T14:46:25.480Z,44.12
2023-03-24T14:49:31.405Z,44.50
2023-03-24T14:50:39.425Z,44.74
2023-03-24T14:53:19.049Z,45.20
2023-03-24T14:54:26.799Z,44.75
2023-03-24T14:55:31.963Z,44.86
2023-03-24T14:56:44.730Z,44.70
2023-03-24T14:58:05.475Z,44.52
2023-03-24T15:00:38.035Z,45.06
2023-03-24T15:01:45.370Z,44.63
2023-03-24T15:04:35.376Z,44.69
2023-03-24T15:07:12.349Z,44.36
2023-03-24T15:08:17.296Z,44.53
2023-03-24T15:09:22.048Z,44.58
2023-03-24T15:10:27.342Z,44.27
2023-03-24T15:11:37.145Z,44.15
2023-03-24T15:15:25.180Z,44.37
2023-03-24T15:18:11.276Z,44.35
2023-03-24T15:19:26.946Z,44.12
2023-03-24T15:23:06.995Z,44.27
2023-03-24T15:25:41.051Z,44.05
2023-03-24T15:27:10.151Z,44.02
2023-03-24T15:28:34.880Z,44.50
2023-03-24T15:29:42.079Z,44.26
2023-03-24T15:30:45.069Z,43.77
2023-03-24T15:31:51.932Z,43.69
2023-03-24T15:32:55.226Z,44.11
2023-03-24T15:35:18.494Z,44.01
2023-03-24T15:36:24.683Z,43.96
2023-03-24T15:37:41.077Z,44.14
2023-03-24T15:38:48.802Z,43.88
2023-03-24T15:40:01.934Z,44.07
2023-03-24T15:41:02.012Z,44.01
2023-03-24T15:42:06.336Z,44.14
2023-03-24T15:43:18.240Z,44.04
2023-03-24T15:44:26.214Z,44.28
2023-03-24T15:45:36.473Z,44.15
2023-03-24T15:46:42.582Z,44.56
2023-03-24T15:47:49.941Z,44.38
2023-03-24T15:48:53.669Z,44.27
2023-03-24T15:50:00.044Z,44.83
2023-03-24T15:52:37.706Z,44.53
2023-03-24T15:53:57.851Z,44.85
2023-03-24T15:56:20.613Z,44.99
2023-03-24T15:57:24.797Z,44.93
2023-03-24T15:58:29.118Z,44.98
2023-03-24T15:59:35.938Z,44.78
2023-03-24T16:00:39.574Z,44.92
2023-03-24T16:01:47.089Z,45.15
2023-03-24T16:02:55.223Z,44.69
2023-03-24T16:04:00.010Z,44.98
2023-03-24T16:05:10.949Z,45.00
2023-03-24T16:06:16.010Z,44.91
2023-03-24T16:07:23.635Z,44.75
2023-03-24T16:08:35.417Z,44.71
2023-03-24T16:09:38.150Z,45.32
2023-03-24T16:10:48.362Z,44.84
2023-03-24T16:11:53.545Z,44.94
2023-03-24T16:12:55.857Z,44.65
2023-03-24T16:15:13.592Z,44.93
2023-03-24T16:17:38.889Z,44.86
2023-03-24T16:18:45.915Z,44.98
2023-03-24T16:19:48.130Z,45.01
2023-03-24T16:20:50.763Z,44.93
2023-03-24T16:21:53.846Z,44.69
2023-03-24T16:22:56.266Z,45.08
2023-03-24T16:23:58.907Z,45.02
2023-03-24T16:25:01.634Z,44.94
2023-03-24T16:26:05.880Z,45.20
2023-03-24T16:28:22.916Z,45.09
2023-03-24T16:29:26.011Z,45.30
2023-03-24T16:30:37.866Z,45.08
2023-03-24T16:31:45.251Z,45.14
2023-03-24T16:32:47.412Z,45.23
2023-03-24T16:35:03.116Z,45.20
2023-03-24T16:36:11.984Z,45.38